createdAt,value
2019-01-15T00:03:05.607Z,78.79
2019-01-15T00:07:10.651Z,78.79
2019-01-15T00:11:15.748Z,78.88
2019-01-15T00:15:20.872Z,78.78
2019-01-15T00:19:25.933Z,78.84
2019-01-15T00:23:31.059Z,78.80
2019-01-15T00:27:36.135Z,78.79
2019-01-15T00:31:41.494Z,78.77
2019-01-15T00:35:47.351Z,78.54
2019-01-15T00:39:52.474Z,78.52
2019-01-15T00:43:57.713Z,78.62
2019-01-15T00:48:02.787Z,78.71
2019-01-15T00:52:07.834Z,78.92
2019-01-15T00:56:13.905Z,79.01
2019-01-15T01:00:23.168Z,79.08
2019-01-15T01:04:28.229Z,79.10
2019-01-15T01:08:33.467Z,79.28
2019-01-15T01:12:38.504Z,79.34
2019-01-15T01:16:43.559Z,79.48
2019-01-15T01:20:48.506Z,79.46
2019-01-15T01:24:53.564Z,79.51
2019-01-15T01:28:58.701Z,79.60
2019-01-15T01:33:03.711Z,79.72
2019-01-15T01:37:08.780Z,79.78
2019-01-15T01:41:13.816Z,79.87
2019-01-15T01:45:19.447Z,79.86
2019-01-15T01:49:24.565Z,79.78
2019-01-15T01:53:29.677Z,79.69
2019-01-15T01:57:34.758Z,79.64
2019-01-15T02:01:39.797Z,79.60
2019-01-15T02:05:44.911Z,79.27
2019-01-15T02:09:51.004Z,79.29
2019-01-15T02:13:56.038Z,79.16
2019-01-15T02:18:01.063Z,79.04
2019-01-15T02:22:06.205Z,79.01
2019-01-15T02:26:11.247Z,79.11
2019-01-15T02:30:21.470Z,79.03
2019-01-15T02:34:26.499Z,79.06
2019-01-15T02:38:31.505Z,78.95
2019-01-15T02:42:36.463Z,78.80
2019-01-15T02:46:41.415Z,78.60
2019-01-15T02:50:46.369Z,78.62
2019-01-15T02:54:51.394Z,78.68
2019-01-15T02:58:56.396Z,78.87
2019-01-15T03:03:01.413Z,78.86
2019-01-15T03:07:06.471Z,78.93
2019-01-15T03:11:11.456Z,79.05
2019-01-15T03:15:17.570Z,79.11
2019-01-15T03:19:22.525Z,79.20
2019-01-15T03:23:27.601Z,79.26
2019-01-15T03:27:32.637Z,79.12
2019-01-15T03:31:37.684Z,79.19
2019-01-15T03:35:42.805Z,79.09
2019-01-15T03:39:47.756Z,79.14
2019-01-15T03:43:52.757Z,79.31
2019-01-15T03:47:57.721Z,79.28
2019-01-15T03:52:02.743Z,79.41
2019-01-15T03:56:07.803Z,79.70
2019-01-15T04:00:20.987Z,79.90
2019-01-15T04:04:26.009Z,80.01
2019-01-15T04:08:31.078Z,80.16
2019-01-15T04:12:36.195Z,80.22
2019-01-15T04:16:41.250Z,80.16
2019-01-15T04:20:46.278Z,80.16
2019-01-15T04:24:51.529Z,80.05
2019-01-15T04:28:56.596Z,79.98
2019-01-15T04:33:01.944Z,79.98
2019-01-15T04:37:06.997Z,80.04
2019-01-15T04:41:12.086Z,79.96
2019-01-15T04:45:18.491Z,79.73
2019-01-15T04:49:23.533Z,79.67
2019-01-15T04:53:28.682Z,79.50
2019-01-15T04:57:33.772Z,79.52
2019-01-15T05:01:38.942Z,79.42
2019-01-15T05:05:44.095Z,79.31
2019-01-15T05:09:49.237Z,79.22
2019-01-15T05:13:55.357Z,79.09
2019-01-15T05:18:00.437Z,78.81
2019-01-15T05:22:05.525Z,78.49
2019-01-15T05:26:10.642Z,78.16
2019-01-15T05:30:18.427Z,77.91
2019-01-15T05:34:23.511Z,77.73
2019-01-15T05:38:28.560Z,77.49
2019-01-15T05:42:33.736Z,77.31
2019-01-15T05:46:38.866Z,77.02
2019-01-15T05:50:49.647Z,76.74
2019-01-15T05:54:54.831Z,76.29
2019-01-15T05:58:59.893Z,76.21
2019-01-15T06:03:05.107Z,75.86
2019-01-15T06:07:10.189Z,75.91
2019-01-15T06:11:15.235Z,75.91
2019-01-15T06:15:20.290Z,75.91
2019-01-15T06:19:25.347Z,76.14
2019-01-15T06:23:31.481Z,75.93
2019-01-15T06:27:36.529Z,75.78
2019-01-15T06:31:41.590Z,75.69
2019-01-15T06:35:46.962Z,75.53
2019-01-15T06:39:52.043Z,75.47
2019-01-15T06:43:57.106Z,75.61
2019-01-15T06:48:02.284Z,75.75
2019-01-15T06:52:07.377Z,75.74
2019-01-15T06:56:12.550Z,75.70
2019-01-15T07:00:22.741Z,75.81
2019-01-15T07:04:27.865Z,76.01
2019-01-15T07:08:33.288Z,76.09
2019-01-15T07:12:38.488Z,76.08
2019-01-15T07:16:43.565Z,76.06
2019-01-15T07:20:48.665Z,76.13
2019-01-15T07:24:53.760Z,76.24
2019-01-15T07:28:58.932Z,76.30
2019-01-15T07:33:04.169Z,76.58
2019-01-15T07:37:09.215Z,76.62
2019-01-15T07:41:14.286Z,76.76
2019-01-15T07:45:20.239Z,76.79
2019-01-15T07:49:25.318Z,76.66
2019-01-15T07:53:30.429Z,76.86
2019-01-15T07:57:35.526Z,76.81
2019-01-15T08:01:41.779Z,76.81
2019-01-15T08:05:46.943Z,76.70
2019-01-15T08:09:51.995Z,76.67
2019-01-15T08:13:57.091Z,76.70
2019-01-15T08:18:02.178Z,76.72
2019-01-15T08:22:07.329Z,76.74
2019-01-15T08:26:12.755Z,76.82
2019-01-15T08:30:22.861Z,76.74
2019-01-15T08:34:27.882Z,76.36
2019-01-15T08:38:32.917Z,75.96
2019-01-15T08:42:38.003Z,75.87
2019-01-15T08:46:43.040Z,75.76
2019-01-15T08:50:49.534Z,75.52
2019-01-15T08:54:54.587Z,75.16
2019-01-15T08:58:59.610Z,75.23
2019-01-15T09:03:04.849Z,74.77
2019-01-15T09:07:09.992Z,74.55
2019-01-15T09:11:15.042Z,74.35
2019-01-15T09:15:20.262Z,74.15
2019-01-15T09:19:25.321Z,73.64
2019-01-15T09:23:30.378Z,73.26
2019-01-15T09:27:35.430Z,73.14
2019-01-15T09:31:40.750Z,72.85
2019-01-15T09:35:45.827Z,72.46
2019-01-15T09:39:50.839Z,72.09
2019-01-15T09:43:55.928Z,71.73
2019-01-15T09:48:04.940Z,71.41
2019-01-15T09:52:13.146Z,70.80
2019-01-15T09:56:16.790Z,71.15
2019-01-15T10:00:21.826Z,70.73
2019-01-15T10:04:26.916Z,70.06
2019-01-15T10:08:32.055Z,69.61
2019-01-15T10:12:37.159Z,69.52
2019-01-15T10:16:42.202Z,69.01
2019-01-15T10:20:47.229Z,68.44
2019-01-15T10:24:52.641Z,69.17
2019-01-15T10:28:57.685Z,67.84
2019-01-15T10:33:42.734Z,68.17
2019-01-15T10:37:47.814Z,67.94
2019-01-15T10:41:52.853Z,67.12
2019-01-15T10:45:58.850Z,67.04
2019-01-15T10:50:04.760Z,66.74
2019-01-15T10:54:09.832Z,66.15
2019-01-15T10:58:17.624Z,65.53
2019-01-15T11:02:21.653Z,65.29
2019-01-15T11:06:26.672Z,64.55
2019-01-15T11:10:31.716Z,64.91
2019-01-15T11:14:37.246Z,64.32
2019-01-15T11:18:42.289Z,64.18
2019-01-15T11:22:47.355Z,63.77
2019-01-15T11:26:52.369Z,62.75
2019-01-15T11:30:57.422Z,62.75
2019-01-15T11:35:02.476Z,62.15
2019-01-15T11:39:09.990Z,62.23
2019-01-15T11:43:15.058Z,61.86
2019-01-15T11:47:20.135Z,62.00
2019-01-15T11:51:25.439Z,61.74
2019-01-15T11:55:30.499Z,62.17
2019-01-15T11:59:35.527Z,61.74
2019-01-15T12:03:54.748Z,61.75
2019-01-15T12:08:18.835Z,61.61
2019-01-15T12:12:41.365Z,61.90
2019-01-15T12:17:03.755Z,62.31
2019-01-15T12:21:26.495Z,62.37
2019-01-15T12:25:42.090Z,62.36
2019-01-15T12:30:03.904Z,62.46
2019-01-15T12:34:30.895Z,62.26
2019-01-15T12:38:53.624Z,62.09
2019-01-15T12:43:16.115Z,61.77
2019-01-15T12:47:38.584Z,61.64
2019-01-15T12:51:51.704Z,62.05
2019-01-15T12:56:08.839Z,61.87
2019-01-15T13:00:32.035Z,62.00
2019-01-15T13:04:49.220Z,62.21
2019-01-15T13:09:22.248Z,62.17
2019-01-15T13:13:46.271Z,62.39
2019-01-15T13:18:09.520Z,61.97
2019-01-15T13:22:43.630Z,62.74
2019-01-15T13:27:13.818Z,63.20
2019-01-15T13:31:45.722Z,63.65
2019-01-15T13:36:05.938Z,64.26
2019-01-15T13:40:30.848Z,64.77
2019-01-15T13:44:53.662Z,65.47
2019-01-15T13:49:17.775Z,65.37
2019-01-15T13:53:38.108Z,65.20
2019-01-15T13:58:02.231Z,65.51
2019-01-15T14:02:29.302Z,65.92
2019-01-15T14:06:53.390Z,65.92
2019-01-15T14:11:16.095Z,66.19
2019-01-15T14:15:49.252Z,66.56
2019-01-15T14:20:10.346Z,66.93
2019-01-15T14:24:37.205Z,67.18
2019-01-15T14:29:05.423Z,67.63
2019-01-15T14:33:21.171Z,68.02
2019-01-15T14:37:48.149Z,68.39
2019-01-15T14:42:10.773Z,68.39
2019-01-15T14:46:35.322Z,68.59
2019-01-15T14:51:11.647Z,68.43
2019-01-15T14:55:34.551Z,68.64
2019-01-15T14:59:57.490Z,68.74
2019-01-15T15:04:30.613Z,68.56
2019-01-15T15:09:03.756Z,68.78
2019-01-15T15:13:32.165Z,68.73
2019-01-15T15:17:53.595Z,68.75
2019-01-15T15:22:23.925Z,68.88
2019-01-15T15:26:46.484Z,69.11
2019-01-15T15:31:09.205Z,69.16
2019-01-15T15:35:32.303Z,68.81
2019-01-15T15:39:54.988Z,69.06
2019-01-15T15:44:17.647Z,69.42
2019-01-15T15:48:44.799Z,69.66
2019-01-15T15:53:11.903Z,69.96
2019-01-15T15:57:36.063Z,69.54
2019-01-15T16:02:12.292Z,69.57
2019-01-15T16:06:42.577Z,69.66
2019-01-15T16:11:11.075Z,69.79
2019-01-15T16:15:28.183Z,70.32
2019-01-15T16:19:51.886Z,70.71
2019-01-15T16:24:10.351Z,70.93
2019-01-15T16:28:37.396Z,71.18
2019-01-15T16:33:04.271Z,71.18
2019-01-15T16:37:17.981Z,71.26
2019-01-15T16:41:46.093Z,70.86
2019-01-15T16:46:16.461Z,70.78
2019-01-15T16:50:52.323Z,70.67
2019-01-15T16:55:31.325Z,70.27
2019-01-15T17:00:08.817Z,69.87
2019-01-15T17:04:32.873Z,69.61
2019-01-15T17:09:05.996Z,69.62
2019-01-15T17:13:36.315Z,69.51
2019-01-15T17:17:52.966Z,69.39
2019-01-15T17:22:29.379Z,69.40
2019-01-15T17:27:02.495Z,69.37
2019-01-15T17:31:28.674Z,69.35
2019-01-15T17:35:51.628Z,69.73
2019-01-15T17:40:14.441Z,69.73
2019-01-15T17:44:38.146Z,69.72
2019-01-15T17:49:05.270Z,69.78
2019-01-15T17:53:28.104Z,69.73
2019-01-15T17:57:50.457Z,69.76
2019-01-15T18:02:11.518Z,69.71
2019-01-15T18:06:34.262Z,69.42
2019-01-15T18:10:56.977Z,68.84
2019-01-15T18:15:22.423Z,69.02
2019-01-15T18:19:46.551Z,69.08
2019-01-15T18:24:19.827Z,68.96
2019-01-15T18:28:32.601Z,69.12
2019-01-15T18:32:59.664Z,69.28
2019-01-15T18:37:14.151Z,69.08
2019-01-15T18:41:33.662Z,69.01
2019-01-15T18:46:06.631Z,69.18
2019-01-15T18:50:33.711Z,69.22
2019-01-15T18:55:06.737Z,69.24
2019-01-15T18:59:29.532Z,69.43
2019-01-15T19:03:53.839Z,69.54
2019-01-15T19:08:25.430Z,69.54
2019-01-15T19:12:50.332Z,69.38
2019-01-15T19:17:17.485Z,69.49
2019-01-15T19:21:41.574Z,68.89
2019-01-15T19:26:00.218Z,69.04
2019-01-15T19:30:19.350Z,69.44
2019-01-15T19:34:42.156Z,69.54
2019-01-15T19:39:05.291Z,69.87
2019-01-15T19:43:29.405Z,70.03
2019-01-15T19:48:11.221Z,70.10
2019-01-15T19:52:32.677Z,70.10
2019-01-15T19:56:57.182Z,70.94
2019-01-15T20:01:39.304Z,70.54
2019-01-15T20:06:06.223Z,70.54
2019-01-15T20:10:42.415Z,70.39
2019-01-15T20:15:05.020Z,70.42
2019-01-15T20:19:32.231Z,70.41
2019-01-15T20:23:54.861Z,70.47
2019-01-15T20:28:15.812Z,70.77
2019-01-15T20:32:45.681Z,70.46
2019-01-15T20:37:11.596Z,70.75
2019-01-15T20:41:35.139Z,70.22
2019-01-15T20:46:05.326Z,70.64
2019-01-15T20:50:38.892Z,70.78
2019-01-15T20:55:05.990Z,70.78
2019-01-15T20:59:28.408Z,71.01
2019-01-15T21:03:47.193Z,71.03
2019-01-15T21:07:59.866Z,71.21
2019-01-15T21:12:24.013Z,71.32
2019-01-15T21:16:48.095Z,71.32
2019-01-15T21:21:21.208Z,71.36
2019-01-15T21:25:47.468Z,71.54
2019-01-15T21:30:14.654Z,71.62
2019-01-15T21:34:37.256Z,71.68
2019-01-15T21:39:00.004Z,71.54
2019-01-15T21:43:18.018Z,71.82
2019-01-15T21:48:00.372Z,71.87
2019-01-15T21:52:23.338Z,71.97
2019-01-15T21:56:35.533Z,71.93
2019-01-15T22:00:58.239Z,72.08
2019-01-15T22:05:22.567Z,72.25
2019-01-15T22:09:45.339Z,72.20
2019-01-15T22:14:09.478Z,72.09
2019-01-15T22:18:42.648Z,72.41
2019-01-15T22:23:05.466Z,72.49
2019-01-15T22:27:22.364Z,72.33
2019-01-15T22:31:40.717Z,72.20
2019-01-15T22:36:12.351Z,72.32
2019-01-15T22:40:26.244Z,72.33
2019-01-15T22:44:39.142Z,72.45
2019-01-15T22:48:59.098Z,72.50
2019-01-15T22:53:21.645Z,72.44
2019-01-15T22:57:55.249Z,72.32
2019-01-15T23:02:16.855Z,72.51
2019-01-15T23:06:45.268Z,72.88
2019-01-15T23:11:02.671Z,73.14
2019-01-15T23:15:16.010Z,74.02
2019-01-15T23:19:37.551Z,74.93
2019-01-15T23:24:00.416Z,75.92
2019-01-15T23:28:17.930Z,76.70
2019-01-15T23:32:45.174Z,76.59
2019-01-15T23:36:59.751Z,77.49
2019-01-15T23:41:39.163Z,77.79
2019-01-15T23:46:15.414Z,77.34
2019-01-15T23:50:29.326Z,77.08
2019-01-15T23:55:05.544Z,77.08
2019-01-15T23:59:32.865Z,77.03
